sensor_id;sensor_type;location;lat;lon;timestamp;P1;durP1;ratioP1;P2;durP2;ratioP2
68655;SDS011;55638;51.122;13.606;2022-08-21T15:20:24;0.93;;;0.63;;
68655;SDS011;55638;51.122;13.606;2022-08-21T15:21:55;1.58;;;0.60;;
68655;SDS011;55638;51.122;13.606;2022-08-21T15:23:27;3.05;;;0.60;;
68655;SDS011;55638;51.122;13.606;2022-08-21T15:24:59;1.48;;;0.60;;
68655;SDS011;55638;51.122;13.606;2022-08-21T15:26:32;1.40;;;0.68;;
68655;SDS011;55638;51.122;13.606;2022-08-21T15:28:05;3.22;;;1.25;;
68655;SDS011;55638;51.122;13.606;2022-08-21T15:29:37;1.13;;;0.60;;
68655;SDS011;55638;51.122;13.606;2022-08-21T15:31:09;1.98;;;0.77;;
68655;SDS011;55638;51.122;13.606;2022-08-21T15:32:41;1.20;;;0.70;;
68655;SDS011;55638;51.122;13.606;2022-08-21T15:34:13;1.75;;;0.70;;
68655;SDS011;55638;51.122;13.606;2022-08-21T15:35:45;0.80;;;0.52;;
68655;SDS011;55638;51.122;13.606;2022-08-21T15:37:17;2.78;;;0.77;;
68655;SDS011;55638;51.122;13.606;2022-08-21T15:38:50;1.10;;;0.63;;
68655;SDS011;55638;51.122;13.606;2022-08-21T15:40:22;0.82;;;0.60;;
68655;SDS011;55638;51.122;13.606;2022-08-21T15:41:54;1.67;;;0.70;;
68655;SDS011;55638;51.122;13.606;2022-08-21T15:43:27;1.58;;;0.60;;
68655;SDS011;55638;51.122;13.606;2022-08-21T15:45:01;1.58;;;0.63;;
68655;SDS011;55638;51.122;13.606;2022-08-21T15:46:34;2.30;;;0.70;;
68655;SDS011;55638;51.122;13.606;2022-08-21T15:48:06;1.27;;;0.60;;
68655;SDS011;55638;51.122;13.606;2022-08-21T15:49:38;1.48;;;0.60;;
68655;SDS011;55638;51.122;13.606;2022-08-21T15:51:10;1.20;;;0.70;;
68655;SDS011;55638;51.122;13.606;2022-08-21T15:52:43;1.75;;;0.50;;
68655;SDS011;55638;51.122;13.606;2022-08-21T15:54:15;1.65;;;0.80;;
68655;SDS011;55638;51.122;13.606;2022-08-21T15:55:47;1.70;;;0.70;;
68655;SDS011;55638;51.122;13.606;2022-08-21T15:57:20;0.50;;;0.50;;
68655;SDS011;55638;51.122;13.606;2022-08-21T15:58:57;1.23;;;0.73;;
68655;SDS011;55638;51.122;13.606;2022-08-21T16:00:34;2.92;;;0.80;;
68655;SDS011;55638;51.122;13.606;2022-08-21T16:02:09;1.42;;;0.63;;
68655;SDS011;55638;51.122;13.606;2022-08-21T16:03:47;1.75;;;0.65;;
68655;SDS011;55638;51.122;13.606;2022-08-21T16:05:21;1.55;;;0.75;;
68655;SDS011;55638;51.122;13.606;2022-08-21T16:06:54;0.95;;;0.70;;
68655;SDS011;55638;51.122;13.606;2022-08-21T16:08:34;1.77;;;0.65;;
68655;SDS011;55638;51.122;13.606;2022-08-21T16:10:06;2.10;;;0.80;;
68655;SDS011;55638;51.122;13.606;2022-08-21T16:11:38;1.70;;;0.88;;
68655;SDS011;55638;51.122;13.606;2022-08-21T16:13:33;1.10;;;0.80;;
68655;SDS011;55638;51.122;13.606;2022-08-21T16:15:07;1.42;;;0.68;;
68655;SDS011;55638;51.122;13.606;2022-08-21T16:16:51;1.67;;;0.70;;
68655;SDS011;55638;51.122;13.606;2022-08-21T16:18:24;2.10;;;0.63;;
68655;SDS011;55638;51.122;13.606;2022-08-21T16:19:57;1.60;;;0.65;;
68655;SDS011;55638;51.122;13.606;2022-08-21T16:21:30;1.70;;;0.82;;
68655;SDS011;55638;51.122;13.606;2022-08-21T16:23:02;1.70;;;0.65;;
68655;SDS011;55638;51.122;13.606;2022-08-21T16:24:34;1.10;;;0.70;;
68655;SDS011;55638;51.122;13.606;2022-08-21T16:26:07;1.55;;;0.82;;
68655;SDS011;55638;51.122;13.606;2022-08-21T16:27:52;1.73;;;0.70;;
68655;SDS011;55638;51.122;13.606;2022-08-21T16:29:32;0.80;;;0.60;;
68655;SDS011;55638;51.122;13.606;2022-08-21T16:31:07;1.05;;;0.70;;
68655;SDS011;55638;51.122;13.606;2022-08-21T16:32:41;1.83;;;0.70;;
68655;SDS011;55638;51.122;13.606;2022-08-21T16:34:15;1.85;;;0.90;;
68655;SDS011;55638;51.122;13.606;2022-08-21T16:35:50;0.77;;;0.50;;
68655;SDS011;55638;51.122;13.606;2022-08-21T16:37:23;1.55;;;0.77;;
68655;SDS011;55638;51.122;13.606;2022-08-21T16:38:55;1.05;;;0.70;;
68655;SDS011;55638;51.122;13.606;2022-08-21T16:40:28;0.88;;;0.52;;
68655;SDS011;55638;51.122;13.606;2022-08-21T16:42:00;0.93;;;0.52;;
68655;SDS011;55638;51.122;13.606;2022-08-21T16:43:32;1.48;;;0.70;;
68655;SDS011;55638;51.122;13.606;2022-08-21T16:45:06;1.20;;;0.52;;
68655;SDS011;55638;51.122;13.606;2022-08-21T16:46:40;1.08;;;0.70;;
68655;SDS011;55638;51.122;13.606;2022-08-21T16:48:13;2.53;;;0.88;;
68655;SDS011;55638;51.122;13.606;2022-08-21T16:49:45;1.55;;;0.88;;
68655;SDS011;55638;51.122;13.606;2022-08-21T16:51:17;1.17;;;0.70;;
68655;SDS011;55638;51.122;13.606;2022-08-21T16:52:49;1.08;;;0.77;;
68655;SDS011;55638;51.122;13.606;2022-08-21T16:54:21;2.10;;;0.75;;
68655;SDS011;55638;51.122;13.606;2022-08-21T16:55:53;1.02;;;0.50;;
68655;SDS011;55638;51.122;13.606;2022-08-21T16:57:25;1.60;;;0.80;;
68655;SDS011;55638;51.122;13.606;2022-08-21T16:58:58;1.42;;;0.75;;
68655;SDS011;55638;51.122;13.606;2022-08-21T17:00:30;1.67;;;0.80;;
68655;SDS011;55638;51.122;13.606;2022-08-21T17:02:01;1.95;;;0.70;;
68655;SDS011;55638;51.122;13.606;2022-08-21T17:03:35;1.90;;;0.90;;
68655;SDS011;55638;51.122;13.606;2022-08-21T17:05:10;1.63;;;0.80;;
68655;SDS011;55638;51.122;13.606;2022-08-21T17:06:44;1.63;;;0.75;;
68655;SDS011;55638;51.122;13.606;2022-08-21T17:08:16;1.52;;;0.80;;
68655;SDS011;55638;51.122;13.606;2022-08-21T17:09:48;1.25;;;0.75;;
68655;SDS011;55638;51.122;13.606;2022-08-21T17:11:27;1.63;;;0.75;;
68655;SDS011;55638;51.122;13.606;2022-08-21T17:13:08;1.75;;;0.90;;
68655;SDS011;55638;51.122;13.606;2022-08-21T17:14:40;1.40;;;0.80;;
68655;SDS011;55638;51.122;13.606;2022-08-21T17:16:12;1.67;;;0.70;;
68655;SDS011;55638;51.122;13.606;2022-08-21T17:17:45;1.85;;;0.75;;
68655;SDS011;55638;51.122;13.606;2022-08-21T17:19:17;1.90;;;0.82;;
68655;SDS011;55638;51.122;13.606;2022-08-21T17:20:49;2.33;;;0.90;;
68655;SDS011;55638;51.122;13.606;2022-08-21T17:22:22;1.65;;;0.68;;
68655;SDS011;55638;51.122;13.606;2022-08-21T17:23:53;1.48;;;0.80;;
68655;SDS011;55638;51.122;13.606;2022-08-21T17:25:25;1.40;;;0.73;;
68655;SDS011;55638;51.122;13.606;2022-08-21T17:26:57;2.47;;;0.80;;
68655;SDS011;55638;51.122;13.606;2022-08-21T17:28:31;2.00;;;0.80;;
68655;SDS011;55638;51.122;13.606;2022-08-21T17:30:06;1.67;;;0.80;;
68655;SDS011;55638;51.122;13.606;2022-08-21T17:31:38;1.80;;;0.73;;
68655;SDS011;55638;51.122;13.606;2022-08-21T17:33:12;1.25;;;0.80;;
68655;SDS011;55638;51.122;13.606;2022-08-21T17:34:45;1.20;;;0.60;;
68655;SDS011;55638;51.122;13.606;2022-08-21T17:36:22;0.88;;;0.80;;
68655;SDS011;55638;51.122;13.606;2022-08-21T17:37:55;1.05;;;0.60;;
68655;SDS011;55638;51.122;13.606;2022-08-21T17:39:27;2.08;;;0.60;;
68655;SDS011;55638;51.122;13.606;2022-08-21T17:40:59;1.08;;;0.70;;
68655;SDS011;55638;51.122;13.606;2022-08-21T17:42:31;1.35;;;0.70;;
68655;SDS011;55638;51.122;13.606;2022-08-21T17:44:05;2.33;;;1.10;;
68655;SDS011;55638;51.122;13.606;2022-08-21T17:45:42;0.95;;;0.75;;
68655;SDS011;55638;51.122;13.606;2022-08-21T17:47:15;1.08;;;0.70;;
68655;SDS011;55638;51.122;13.606;2022-08-21T17:48:47;1.42;;;0.90;;
68655;SDS011;55638;51.122;13.606;2022-08-21T17:50:19;1.75;;;1.00;;
68655;SDS011;55638;51.122;13.606;2022-08-21T17:51:53;1.75;;;1.00;;
68655;SDS011;55638;51.122;13.606;2022-08-21T17:53:25;1.30;;;1.00;;
68655;SDS011;55638;51.122;13.606;2022-08-21T17:54:57;2.58;;;1.10;;
68655;SDS011;55638;51.122;13.606;2022-08-21T17:56:30;1.98;;;1.02;;
68655;SDS011;55638;51.122;13.606;2022-08-21T17:58:04;2.00;;;1.00;;
68655;SDS011;55638;51.122;13.606;2022-08-21T17:59:36;1.15;;;0.93;;
68655;SDS011;55638;51.122;13.606;2022-08-21T18:01:09;2.55;;;1.20;;
68655;SDS011;55638;51.122;13.606;2022-08-21T18:02:41;2.45;;;1.42;;
68655;SDS011;55638;51.122;13.606;2022-08-21T18:04:15;1.45;;;1.10;;
68655;SDS011;55638;51.122;13.606;2022-08-21T18:05:48;3.47;;;1.50;;
68655;SDS011;55638;51.122;13.606;2022-08-21T18:07:21;1.85;;;1.17;;
68655;SDS011;55638;51.122;13.606;2022-08-21T18:09:03;1.70;;;1.30;;
68655;SDS011;55638;51.122;13.606;2022-08-21T18:10:37;3.38;;;1.20;;
68655;SDS011;55638;51.122;13.606;2022-08-21T18:12:10;1.63;;;0.90;;
68655;SDS011;55638;51.122;13.606;2022-08-21T18:13:43;1.30;;;0.80;;
68655;SDS011;55638;51.122;13.606;2022-08-21T18:15:16;1.25;;;1.05;;
68655;SDS011;55638;51.122;13.606;2022-08-21T18:16:49;1.13;;;0.93;;
68655;SDS011;55638;51.122;13.606;2022-08-21T18:18:21;2.47;;;1.13;;
68655;SDS011;55638;51.122;13.606;2022-08-21T18:19:55;1.48;;;1.20;;
68655;SDS011;55638;51.122;13.606;2022-08-21T18:21:29;2.55;;;1.25;;
68655;SDS011;55638;51.122;13.606;2022-08-21T18:23:02;2.38;;;1.17;;
68655;SDS011;55638;51.122;13.606;2022-08-21T18:24:35;2.60;;;1.20;;
68655;SDS011;55638;51.122;13.606;2022-08-21T18:26:07;1.88;;;1.17;;
68655;SDS011;55638;51.122;13.606;2022-08-21T18:27:39;2.25;;;1.33;;
68655;SDS011;55638;51.122;13.606;2022-08-21T18:29:15;2.88;;;1.48;;
68655;SDS011;55638;51.122;13.606;2022-08-21T18:30:48;5.05;;;1.30;;
68655;SDS011;55638;51.122;13.606;2022-08-21T18:32:23;2.00;;;1.70;;
68655;SDS011;55638;51.122;13.606;2022-08-21T18:35:54;2.75;;;2.00;;
68655;SDS011;55638;51.122;13.606;2022-08-21T18:37:28;3.08;;;1.50;;
68655;SDS011;55638;51.122;13.606;2022-08-21T18:39:02;2.83;;;1.70;;
68655;SDS011;55638;51.122;13.606;2022-08-21T18:40:54;2.17;;;1.60;;
68655;SDS011;55638;51.122;13.606;2022-08-21T18:42:27;3.10;;;1.20;;
68655;SDS011;55638;51.122;13.606;2022-08-21T18:44:07;4.32;;;1.42;;
68655;SDS011;55638;51.122;13.606;2022-08-21T18:45:40;2.65;;;1.42;;
68655;SDS011;55638;51.122;13.606;2022-08-21T18:47:14;1.40;;;1.10;;
68655;SDS011;55638;51.122;13.606;2022-08-21T18:48:52;2.47;;;1.15;;
68655;SDS011;55638;51.122;13.606;2022-08-21T18:50:25;4.28;;;1.10;;
68655;SDS011;55638;51.122;13.606;2022-08-21T18:51:59;2.33;;;1.30;;
68655;SDS011;55638;51.122;13.606;2022-08-21T18:53:33;4.13;;;1.30;;
68655;SDS011;55638;51.122;13.606;2022-08-21T18:55:07;2.17;;;1.25;;
68655;SDS011;55638;51.122;13.606;2022-08-21T18:56:44;2.00;;;1.40;;
68655;SDS011;55638;51.122;13.606;2022-08-21T18:58:17;1.55;;;1.13;;
68655;SDS011;55638;51.122;13.606;2022-08-21T18:59:49;2.00;;;1.40;;
68655;SDS011;55638;51.122;13.606;2022-08-21T19:01:21;1.92;;;1.08;;
68655;SDS011;55638;51.122;13.606;2022-08-21T19:02:54;2.00;;;1.15;;
68655;SDS011;55638;51.122;13.606;2022-08-21T19:04:27;1.90;;;1.20;;
68655;SDS011;55638;51.122;13.606;2022-08-21T19:06:14;1.25;;;0.90;;
68655;SDS011;55638;51.122;13.606;2022-08-21T19:07:48;2.15;;;1.02;;
68655;SDS011;55638;51.122;13.606;2022-08-21T19:09:21;4.00;;;1.20;;
68655;SDS011;55638;51.122;13.606;2022-08-21T19:10:56;2.13;;;1.33;;
68655;SDS011;55638;51.122;13.606;2022-08-21T19:12:31;2.45;;;1.45;;
68655;SDS011;55638;51.122;13.606;2022-08-21T19:14:06;2.33;;;1.20;;
68655;SDS011;55638;51.122;13.606;2022-08-21T19:15:46;3.10;;;1.00;;
68655;SDS011;55638;51.122;13.606;2022-08-21T19:17:23;2.78;;;1.27;;
68655;SDS011;55638;51.122;13.606;2022-08-21T19:18:54;1.30;;;1.00;;
68655;SDS011;55638;51.122;13.606;2022-08-21T19:20:32;1.42;;;1.00;;
68655;SDS011;55638;51.122;13.606;2022-08-21T19:22:06;2.75;;;1.00;;
68655;SDS011;55638;51.122;13.606;2022-08-21T19:23:58;2.00;;;1.00;;
68655;SDS011;55638;51.122;13.606;2022-08-21T19:25:30;2.65;;;1.25;;
68655;SDS011;55638;51.122;13.606;2022-08-21T19:27:05;2.75;;;1.08;;
68655;SDS011;55638;51.122;13.606;2022-08-21T19:28:42;1.83;;;1.10;;
68655;SDS011;55638;51.122;13.606;2022-08-21T19:30:18;1.00;;;0.90;;
68655;SDS011;55638;51.122;13.606;2022-08-21T19:31:50;2.22;;;1.00;;
68655;SDS011;55638;51.122;13.606;2022-08-21T19:33:25;3.33;;;1.35;;
68655;SDS011;55638;51.122;13.606;2022-08-21T19:35:04;1.85;;;1.20;;
68655;SDS011;55638;51.122;13.606;2022-08-21T19:36:36;2.20;;;1.10;;
68655;SDS011;55638;51.122;13.606;2022-08-21T19:38:12;1.63;;;1.00;;
68655;SDS011;55638;51.122;13.606;2022-08-21T19:39:47;2.70;;;1.48;;
68655;SDS011;55638;51.122;13.606;2022-08-21T19:41:24;1.42;;;1.20;;
68655;SDS011;55638;51.122;13.606;2022-08-21T19:42:58;3.97;;;1.17;;
68655;SDS011;55638;51.122;13.606;2022-08-21T19:44:31;1.45;;;1.30;;
68655;SDS011;55638;51.122;13.606;2022-08-21T19:46:04;2.13;;;1.02;;
68655;SDS011;55638;51.122;13.606;2022-08-21T19:47:37;1.35;;;1.00;;
68655;SDS011;55638;51.122;13.606;2022-08-21T19:49:16;1.38;;;1.02;;
68655;SDS011;55638;51.122;13.606;2022-08-21T19:50:52;2.28;;;1.10;;
68655;SDS011;55638;51.122;13.606;2022-08-21T19:52:24;1.40;;;1.00;;
68655;SDS011;55638;51.122;13.606;2022-08-21T19:53:56;3.22;;;1.13;;
68655;SDS011;55638;51.122;13.606;2022-08-21T19:55:31;2.47;;;1.10;;
68655;SDS011;55638;51.122;13.606;2022-08-21T19:57:04;1.42;;;1.10;;
68655;SDS011;55638;51.122;13.606;2022-08-21T19:58:38;1.83;;;1.10;;
68655;SDS011;55638;51.122;13.606;2022-08-21T20:00:11;2.00;;;1.15;;
68655;SDS011;55638;51.122;13.606;2022-08-21T20:01:47;2.90;;;1.27;;
68655;SDS011;55638;51.122;13.606;2022-08-21T20:03:20;3.67;;;1.50;;
68655;SDS011;55638;51.122;13.606;2022-08-21T20:04:51;2.05;;;1.30;;
68655;SDS011;55638;51.122;13.606;2022-08-21T20:06:25;1.65;;;1.38;;
68655;SDS011;55638;51.122;13.606;2022-08-21T20:07:57;3.30;;;1.40;;
68655;SDS011;55638;51.122;13.606;2022-08-21T20:09:29;2.20;;;1.17;;
68655;SDS011;55638;51.122;13.606;2022-08-21T20:11:02;1.63;;;1.05;;
68655;SDS011;55638;51.122;13.606;2022-08-21T20:12:35;2.80;;;1.40;;
68655;SDS011;55638;51.122;13.606;2022-08-21T20:14:07;2.25;;;1.33;;
68655;SDS011;55638;51.122;13.606;2022-08-21T20:15:40;1.90;;;1.58;;
68655;SDS011;55638;51.122;13.606;2022-08-21T20:17:13;1.95;;;1.40;;
68655;SDS011;55638;51.122;13.606;2022-08-21T20:18:46;1.90;;;1.30;;
68655;SDS011;55638;51.122;13.606;2022-08-21T20:20:19;2.20;;;1.15;;
68655;SDS011;55638;51.122;13.606;2022-08-21T20:21:51;2.85;;;1.30;;
68655;SDS011;55638;51.122;13.606;2022-08-21T20:23:22;2.42;;;1.30;;
68655;SDS011;55638;51.122;13.606;2022-08-21T20:25:00;2.13;;;1.20;;
68655;SDS011;55638;51.122;13.606;2022-08-21T20:26:32;2.17;;;1.48;;
68655;SDS011;55638;51.122;13.606;2022-08-21T20:28:04;3.03;;;1.20;;
68655;SDS011;55638;51.122;13.606;2022-08-21T20:29:38;1.48;;;1.10;;
68655;SDS011;55638;51.122;13.606;2022-08-21T20:31:10;2.45;;;1.63;;
68655;SDS011;55638;51.122;13.606;2022-08-21T20:32:45;3.10;;;1.17;;
68655;SDS011;55638;51.122;13.606;2022-08-21T20:34:16;2.45;;;1.58;;
68655;SDS011;55638;51.122;13.606;2022-08-21T20:35:48;2.45;;;1.35;;
68655;SDS011;55638;51.122;13.606;2022-08-21T20:37:22;3.35;;;1.40;;
68655;SDS011;55638;51.122;13.606;2022-08-21T20:39:07;2.60;;;1.60;;
68655;SDS011;55638;51.122;13.606;2022-08-21T20:40:42;1.00;;;1.00;;
68655;SDS011;55638;51.122;13.606;2022-08-21T20:42:15;1.20;;;1.00;;
68655;SDS011;55638;51.122;13.606;2022-08-21T20:43:47;3.20;;;1.17;;
68655;SDS011;55638;51.122;13.606;2022-08-21T20:45:25;1.88;;;1.23;;
68655;SDS011;55638;51.122;13.606;2022-08-21T20:46:59;2.97;;;1.55;;
68655;SDS011;55638;51.122;13.606;2022-08-21T20:48:39;1.58;;;1.27;;
68655;SDS011;55638;51.122;13.606;2022-08-21T20:50:33;4.15;;;1.58;;
68655;SDS011;55638;51.122;13.606;2022-08-21T20:52:07;1.92;;;1.10;;
68655;SDS011;55638;51.122;13.606;2022-08-21T20:53:45;2.30;;;1.50;;
68655;SDS011;55638;51.122;13.606;2022-08-21T20:55:23;1.73;;;1.30;;
68655;SDS011;55638;51.122;13.606;2022-08-21T21:01:06;2.08;;;1.40;;
68655;SDS011;55638;51.122;13.606;2022-08-21T21:02:45;1.55;;;1.20;;
68655;SDS011;55638;51.122;13.606;2022-08-21T21:04:30;2.28;;;1.40;;
68655;SDS011;55638;51.122;13.606;2022-08-21T21:06:13;3.10;;;1.33;;
68655;SDS011;55638;51.122;13.606;2022-08-21T21:08:00;3.78;;;1.20;;
68655;SDS011;55638;51.122;13.606;2022-08-21T21:09:37;1.35;;;1.13;;
68655;SDS011;55638;51.122;13.606;2022-08-21T21:11:16;2.17;;;1.20;;
68655;SDS011;55638;51.122;13.606;2022-08-21T21:12:49;2.38;;;1.10;;
68655;SDS011;55638;51.122;13.606;2022-08-21T21:14:32;1.75;;;1.33;;
68655;SDS011;55638;51.122;13.606;2022-08-21T21:19:57;2.40;;;1.10;;
68655;SDS011;55638;51.122;13.606;2022-08-21T21:21:50;2.40;;;1.10;;
68655;SDS011;55638;51.122;13.606;2022-08-21T21:23:33;2.58;;;1.35;;
68655;SDS011;55638;51.122;13.606;2022-08-21T21:25:17;1.52;;;1.17;;
68655;SDS011;55638;51.122;13.606;2022-08-21T21:26:56;2.58;;;1.15;;
68655;SDS011;55638;51.122;13.606;2022-08-21T21:30:42;1.45;;;1.10;;
68655;SDS011;55638;51.122;13.606;2022-08-21T21:32:17;1.98;;;1.15;;
68655;SDS011;55638;51.122;13.606;2022-08-21T21:33:50;3.22;;;1.20;;
68655;SDS011;55638;51.122;13.606;2022-08-21T21:35:25;2.08;;;1.30;;
68655;SDS011;55638;51.122;13.606;2022-08-21T21:37:14;3.05;;;1.42;;
68655;SDS011;55638;51.122;13.606;2022-08-21T21:42:29;2.40;;;1.27;;
68655;SDS011;55638;51.122;13.606;2022-08-21T21:44:42;1.60;;;1.20;;
68655;SDS011;55638;51.122;13.606;2022-08-21T21:46:38;2.92;;;1.45;;
68655;SDS011;55638;51.122;13.606;2022-08-21T21:50:20;1.33;;;1.15;;
68655;SDS011;55638;51.122;13.606;2022-08-21T21:52:28;2.22;;;1.52;;
68655;SDS011;55638;51.122;13.606;2022-08-21T21:58:37;3.15;;;1.42;;
68655;SDS011;55638;51.122;13.606;2022-08-21T22:00:23;1.40;;;1.05;;
68655;SDS011;55638;51.122;13.606;2022-08-21T22:03:52;2.40;;;1.52;;
68655;SDS011;55638;51.122;13.606;2022-08-21T22:05:56;1.90;;;1.33;;
68655;SDS011;55638;51.122;13.606;2022-08-21T22:09:49;3.33;;;1.52;;
68655;SDS011;55638;51.122;13.606;2022-08-21T22:11:53;2.03;;;1.48;;
68655;SDS011;55638;51.122;13.606;2022-08-21T22:15:32;2.45;;;1.70;;
68655;SDS011;55638;51.122;13.606;2022-08-21T22:19:18;2.80;;;1.70;;
68655;SDS011;55638;51.122;13.606;2022-08-21T22:20:55;2.55;;;1.80;;
68655;SDS011;55638;51.122;13.606;2022-08-21T22:22:33;4.85;;;1.98;;
68655;SDS011;55638;51.122;13.606;2022-08-21T22:24:41;3.30;;;1.90;;
68655;SDS011;55638;51.122;13.606;2022-08-21T22:26:11;1.65;;;1.52;;
68655;SDS011;55638;51.122;13.606;2022-08-21T22:27:48;1.23;;;1.13;;
68655;SDS011;55638;51.122;13.606;2022-08-21T22:29:40;2.25;;;1.70;;
68655;SDS011;55638;51.122;13.606;2022-08-21T22:32:51;2.75;;;1.50;;
68655;SDS011;55638;51.122;13.606;2022-08-21T22:34:23;2.22;;;1.50;;
68655;SDS011;55638;51.122;13.606;2022-08-21T22:35:56;1.50;;;1.35;;
68655;SDS011;55638;51.122;13.606;2022-08-21T22:37:33;2.72;;;1.60;;
68655;SDS011;55638;51.122;13.606;2022-08-21T22:39:11;2.05;;;1.75;;
68655;SDS011;55638;51.122;13.606;2022-08-21T22:40:45;3.55;;;1.85;;
68655;SDS011;55638;51.122;13.606;2022-08-21T22:42:22;3.88;;;1.92;;
68655;SDS011;55638;51.122;13.606;2022-08-21T22:43:57;2.50;;;1.77;;
68655;SDS011;55638;51.122;13.606;2022-08-21T22:47:38;3.15;;;2.10;;
68655;SDS011;55638;51.122;13.606;2022-08-21T22:49:19;2.05;;;1.70;;
68655;SDS011;55638;51.122;13.606;2022-08-21T22:50:58;1.90;;;1.70;;
68655;SDS011;55638;51.122;13.606;2022-08-21T22:52:36;2.20;;;1.80;;
68655;SDS011;55638;51.122;13.606;2022-08-21T22:54:22;3.13;;;1.92;;
68655;SDS011;55638;51.122;13.606;2022-08-21T22:56:04;2.97;;;1.90;;
68655;SDS011;55638;51.122;13.606;2022-08-21T22:57:38;3.58;;;1.88;;
68655;SDS011;55638;51.122;13.606;2022-08-21T23:02:55;2.25;;;1.60;;
68655;SDS011;55638;51.122;13.606;2022-08-21T23:04:29;2.03;;;1.70;;
68655;SDS011;55638;51.122;13.606;2022-08-21T23:06:04;1.88;;;1.70;;
68655;SDS011;55638;51.122;13.606;2022-08-21T23:11:58;2.15;;;1.70;;
68655;SDS011;55638;51.122;13.606;2022-08-21T23:13:51;3.50;;;1.80;;
68655;SDS011;55638;51.122;13.606;2022-08-21T23:15:25;3.63;;;2.00;;
68655;SDS011;55638;51.122;13.606;2022-08-21T23:17:12;3.38;;;2.22;;
68655;SDS011;55638;51.122;13.606;2022-08-21T23:18:50;2.80;;;2.20;;
68655;SDS011;55638;51.122;13.606;2022-08-21T23:20:32;5.22;;;2.70;;
68655;SDS011;55638;51.122;13.606;2022-08-21T23:24:33;3.85;;;2.78;;
68655;SDS011;55638;51.122;13.606;2022-08-21T23:26:28;4.45;;;2.67;;
68655;SDS011;55638;51.122;13.606;2022-08-21T23:30:13;3.85;;;3.08;;
68655;SDS011;55638;51.122;13.606;2022-08-21T23:32:19;3.22;;;2.75;;
68655;SDS011;55638;51.122;13.606;2022-08-21T23:34:12;3.38;;;2.63;;
68655;SDS011;55638;51.122;13.606;2022-08-21T23:36:01;3.65;;;2.70;;
68655;SDS011;55638;51.122;13.606;2022-08-21T23:38:09;4.28;;;2.40;;
68655;SDS011;55638;51.122;13.606;2022-08-21T23:39:57;3.90;;;2.42;;
68655;SDS011;55638;51.122;13.606;2022-08-21T23:43:55;4.75;;;2.40;;
68655;SDS011;55638;51.122;13.606;2022-08-21T23:53:32;2.28;;;2.08;;
68655;SDS011;55638;51.122;13.606;2022-08-21T23:57:02;3.15;;;2.10;;
68655;SDS011;55638;51.122;13.606;2022-08-21T23:59:07;3.40;;;2.30;;
